SHT4C EGLL-EGAC
Flight info
| Callsign | SHT4C |
|---|---|
| Flight time | N/A |
| Altitude | 32000 |
| Route | ULTIB T420 TNT UL28 RODOL UM65 TENSO L603 BELOX DCT REMSI DCT NINEB M148 MAGEE |
| Aircraft | A320/M-SDE3FGHIRWY/LB1 |
Departure
| Time | N/A |
|---|---|
| Airport | London Heathrow Airport (EGLL) |
Arrival
| Time | 2026-05-04 19:19 |
|---|---|
| Airport | George Best Belfast City Airport (EGAC) |
| Time | Latitude | Longitude | Altitude | Speed | Heading |
|---|---|---|---|---|---|
| 2026-05-04 18:55 | 53.73487 | -2.79685 | 32079 ft | 413 kts | 292° |
| 2026-05-04 18:55 | 53.75544 | -2.88846 | 32064 ft | 432 kts | 292° |
| 2026-05-04 18:55 | 53.76622 | -2.93646 | 32070 ft | 443 kts | 292° |
| 2026-05-04 18:56 | 53.77729 | -2.98588 | 32086 ft | 454 kts | 292° |
| 2026-05-04 18:56 | 53.78855 | -3.03633 | 32084 ft | 463 kts | 292° |
| 2026-05-04 18:56 | 53.81121 | -3.13910 | 32079 ft | 468 kts | 292° |
| 2026-05-04 18:57 | 53.83384 | -3.24227 | 32081 ft | 467 kts | 292° |
| 2026-05-04 18:57 | 53.85646 | -3.34546 | 32078 ft | 467 kts | 292° |
| 2026-05-04 18:58 | 53.87924 | -3.44942 | 32075 ft | 467 kts | 292° |
| 2026-05-04 18:58 | 53.90167 | -3.55273 | 32067 ft | 467 kts | 292° |
| 2026-05-04 18:59 | 53.92402 | -3.65627 | 32068 ft | 467 kts | 292° |
| 2026-05-04 18:59 | 53.94604 | -3.75905 | 32068 ft | 466 kts | 291° |
| 2026-05-04 19:00 | 53.97189 | -3.86000 | 32093 ft | 462 kts | 301° |
| 2026-05-04 19:00 | 54.00377 | -3.95378 | 32095 ft | 460 kts | 301° |
| 2026-05-04 19:01 | 54.03560 | -4.04817 | 32096 ft | 460 kts | 301° |
| 2026-05-04 19:01 | 54.06800 | -4.14188 | 32091 ft | 458 kts | 306° |
| 2026-05-04 19:02 | 54.10492 | -4.23096 | 31120 ft | 464 kts | 306° |
| 2026-05-04 19:02 | 54.12362 | -4.27601 | 30315 ft | 464 kts | 306° |
| 2026-05-04 19:02 | 54.14213 | -4.32079 | 29475 ft | 461 kts | 306° |
| 2026-05-04 19:03 | 54.16054 | -4.36547 | 28444 ft | 461 kts | 306° |
| 2026-05-04 19:03 | 54.17902 | -4.41033 | 27411 ft | 462 kts | 306° |
| 2026-05-04 19:03 | 54.19746 | -4.45517 | 26927 ft | 462 kts | 306° |
| 2026-05-04 19:03 | 54.21593 | -4.50011 | 26437 ft | 463 kts | 306° |
| 2026-05-04 19:04 | 54.23441 | -4.54519 | 26025 ft | 458 kts | 306° |
| 2026-05-04 19:04 | 54.25238 | -4.58914 | 25780 ft | 449 kts | 306° |
| 2026-05-04 19:04 | 54.27041 | -4.63327 | 25540 ft | 455 kts | 306° |
| 2026-05-04 19:04 | 54.28860 | -4.67790 | 25291 ft | 456 kts | 306° |
| 2026-05-04 19:05 | 54.30670 | -4.72249 | 24810 ft | 454 kts | 306° |
| 2026-05-04 19:05 | 54.32469 | -4.76683 | 23947 ft | 452 kts | 305° |
| 2026-05-04 19:05 | 54.34259 | -4.81103 | 22892 ft | 450 kts | 305° |
| 2026-05-04 19:05 | 54.36040 | -4.85508 | 21826 ft | 448 kts | 305° |
| 2026-05-04 19:06 | 54.37807 | -4.89891 | 20796 ft | 446 kts | 305° |
| 2026-05-04 19:06 | 54.39563 | -4.94260 | 19802 ft | 444 kts | 305° |
| 2026-05-04 19:06 | 54.41308 | -4.98610 | 18855 ft | 441 kts | 304° |
| 2026-05-04 19:06 | 54.43043 | -5.02934 | 17832 ft | 438 kts | 304° |
| 2026-05-04 19:07 | 54.44756 | -5.07207 | 16919 ft | 431 kts | 304° |
| 2026-05-04 19:07 | 54.46429 | -5.11360 | 16037 ft | 424 kts | 304° |
| 2026-05-04 19:07 | 54.48083 | -5.15438 | 15052 ft | 406 kts | 304° |
| 2026-05-04 19:07 | 54.49683 | -5.19320 | 14086 ft | 392 kts | 307° |
| 2026-05-04 19:08 | 54.51481 | -5.22786 | 13035 ft | 384 kts | 315° |
| 2026-05-04 19:08 | 54.53508 | -5.25723 | 12000 ft | 378 kts | 321° |
| 2026-05-04 19:08 | 54.55562 | -5.28484 | 11000 ft | 372 kts | 321° |
| 2026-05-04 19:08 | 54.57577 | -5.31226 | 10327 ft | 364 kts | 319° |
| 2026-05-04 19:09 | 54.59184 | -5.34374 | 9702 ft | 339 kts | 299° |
| 2026-05-04 19:09 | 54.59929 | -5.38085 | 9042 ft | 321 kts | 277° |
| 2026-05-04 19:09 | 54.59753 | -5.41820 | 8390 ft | 310 kts | 253° |
| 2026-05-04 19:09 | 54.58731 | -5.45003 | 7755 ft | 302 kts | 232° |
| 2026-05-04 19:10 | 54.57349 | -5.47680 | 7136 ft | 295 kts | 229° |
| 2026-05-04 19:10 | 54.55967 | -5.50230 | 6516 ft | 288 kts | 229° |
| 2026-05-04 19:10 | 54.54607 | -5.52721 | 5854 ft | 283 kts | 229° |
| 2026-05-04 19:10 | 54.53396 | -5.55329 | 5251 ft | 275 kts | 238° |
| 2026-05-04 19:11 | 54.52364 | -5.57977 | 5039 ft | 256 kts | 239° |
| 2026-05-04 19:11 | 54.51421 | -5.60410 | 5014 ft | 233 kts | 239° |
| 2026-05-04 19:11 | 54.50562 | -5.62609 | 5007 ft | 212 kts | 239° |
| 2026-05-04 19:11 | 54.49749 | -5.64675 | 5018 ft | 208 kts | 239° |
| 2026-05-04 19:12 | 54.48944 | -5.66729 | 5015 ft | 209 kts | 239° |
| 2026-05-04 19:12 | 54.47552 | -5.71027 | 4939 ft | 203 kts | 256° |
| 2026-05-04 19:12 | 54.47186 | -5.73368 | 4644 ft | 203 kts | 258° |
| 2026-05-04 19:13 | 54.46851 | -5.75722 | 4358 ft | 203 kts | 259° |
| 2026-05-04 19:13 | 54.46513 | -5.78122 | 3879 ft | 212 kts | 259° |
| 2026-05-04 19:13 | 54.46162 | -5.80651 | 3332 ft | 223 kts | 259° |
| 2026-05-04 19:13 | 54.45797 | -5.83280 | 2775 ft | 227 kts | 259° |
| 2026-05-04 19:14 | 54.45436 | -5.85864 | 2522 ft | 215 kts | 258° |
| 2026-05-04 19:14 | 54.45095 | -5.88300 | 2507 ft | 207 kts | 260° |
| 2026-05-04 19:14 | 54.45131 | -5.90690 | 2508 ft | 200 kts | 292° |
| 2026-05-04 19:14 | 54.45759 | -5.92803 | 2509 ft | 199 kts | 302° |
| 2026-05-04 19:15 | 54.46495 | -5.94817 | 2515 ft | 198 kts | 303° |
| 2026-05-04 19:15 | 54.47241 | -5.96812 | 2517 ft | 198 kts | 304° |
| 2026-05-04 19:15 | 54.48044 | -5.98727 | 2501 ft | 197 kts | 320° |
| 2026-05-04 19:15 | 54.49272 | -5.99682 | 2516 ft | 197 kts | 352° |
| 2026-05-04 19:16 | 54.50608 | -5.99379 | 2454 ft | 197 kts | 17° |
| 2026-05-04 19:16 | 54.51911 | -5.98565 | 2047 ft | 196 kts | 18° |
| 2026-05-04 19:16 | 54.53143 | -5.97605 | 2035 ft | 199 kts | 30° |
| 2026-05-04 19:16 | 54.54269 | -5.96279 | 1778 ft | 192 kts | 33° |
| 2026-05-04 19:17 | 54.55307 | -5.95021 | 1485 ft | 174 kts | 32° |
| 2026-05-04 19:17 | 54.56241 | -5.93899 | 1264 ft | 151 kts | 31° |
| 2026-05-04 19:17 | 54.57059 | -5.92922 | 1043 ft | 137 kts | 31° |
| 2026-05-04 19:17 | 54.57826 | -5.92008 | 850 ft | 132 kts | 33° |
| 2026-05-04 19:18 | 54.58574 | -5.91117 | 675 ft | 130 kts | 34° |
| 2026-05-04 19:18 | 54.59322 | -5.90220 | 518 ft | 131 kts | 34° |
| 2026-05-04 19:18 | 54.60073 | -5.89324 | 308 ft | 131 kts | 34° |
| 2026-05-04 19:18 | 54.60825 | -5.88439 | 139 ft | 129 kts | 33° |
| 2026-05-04 19:19 | 54.61552 | -5.87564 | 18 ft | 118 kts | 38° |
| 2026-05-04 19:19 | 54.62001 | -5.87023 | 16 ft | 45 kts | 35° |
| 2026-05-04 19:19 | 54.62159 | -5.86833 | 17 ft | 19 kts | 34° |
| 2026-05-04 19:19 | 54.62224 | -5.86769 | 20 ft | 4 kts | 76° |
| 2026-05-04 19:20 | 54.62205 | -5.86782 | 22 ft | 7 kts | 215° |
| 2026-05-04 19:20 | 54.62121 | -5.86881 | 16 ft | 21 kts | 214° |
| 2026-05-04 19:20 | 54.61996 | -5.87031 | 16 ft | 24 kts | 215° |
| 2026-05-04 19:20 | 54.61861 | -5.87189 | 19 ft | 12 kts | 200° |
| 2026-05-04 19:21 | 54.61795 | -5.87080 | 19 ft | 14 kts | 125° |
| 2026-05-04 19:21 | 54.61723 | -5.86999 | 21 ft | 14 kts | 200° |
| 2026-05-04 19:21 | 54.61635 | -5.87100 | 21 ft | 17 kts | 215° |
| 2026-05-04 19:21 | 54.61560 | -5.87190 | 21 ft | 7 kts | 215° |
| 2026-05-04 19:22 | 54.61522 | -5.87235 | 21 ft | 0 kts | 208° |
| 2026-05-04 19:22 | 54.61519 | -5.87231 | 21 ft | 1 kts | 172° |
| 2026-05-04 19:22 | 54.61500 | -5.87218 | 21 ft | 4 kts | 155° |
| 2026-05-04 19:22 | 54.61468 | -5.87193 | 23 ft | 0 kts | 155° |
| 2026-05-04 19:23 | 54.61463 | -5.87189 | 22 ft | 0 kts | 156° |